Allegany, New York
Current Conditions -  °F | °C
As of 4:35 PM on Saturday 22 Nov 2014 (Local Time) from KOLE Reporting Station
Moderate Fog Moderate Fog  
Wind Chill: 27°   Ceiling: 200
Heat Index: 34°   Visibility: 0mi
Dew Point: 34°   Wind: 8mph
Humidity: 100%   Direction: 230°SW
Pressure: 30.02"   Gusts: NA
Location:  42.09°N, 78.49°W
Report Text: KOLE 222135Z AUTO 23007KT M1/4SM FG OVC002 01/01 A3002 RMK AO2
Loading
Personal Weather Stations






























Interactive Weather Map New forecast layout! Learn more

10-Day Weather Forecast

Advertisements
Track Severe Weather on mobile